Time;durP1;ratioP1;P1;durP2;ratioP2;P2;SDS_P1;SDS_P2;PMS_P1;PMS_P2;Temp;Humidity;BMP_temperature;BMP_pressure;BME280_temperature;BME280_humidity;BME280_pressure;Samples;Min_cycle;Max_cycle;Signal;HPM_P1;HPM_P2
2023/10/04 00:04:25;;;;;;;3.30;1.60;;;17.60;36.90;;;;;;10459592;28;20233;-71
2023/10/04 00:09:29;;;;;;;1.70;1.60;;;17.50;37.20;;;;;;10461766;28;20859;-71
2023/10/04 00:14:32;;;;;;;1.93;1.80;;;17.50;36.90;;;;;;10459628;28;20706;-71
2023/10/04 00:19:39;;;;;;;1.70;1.60;;;17.50;36.90;;;;;;10457125;28;20942;-71
2023/10/04 00:24:42;;;;;;;2.63;1.40;;;17.40;37.30;;;;;;10460233;28;20598;-71
2023/10/04 00:29:45;;;;;;;1.97;1.77;;;17.40;36.90;;;;;;10458705;28;20236;-71
2023/10/04 00:34:51;;;;;;;2.10;1.70;;;17.40;36.90;;;;;;10456989;28;20622;-71
2023/10/04 00:39:54;;;;;;;1.93;1.73;;;17.40;37.30;;;;;;10458727;28;20730;-71
2023/10/04 00:44:58;;;;;;;2.07;1.60;;;17.40;37.00;;;;;;10465528;28;20227;-71
2023/10/04 00:50:14;;;;;;;1.67;1.43;;;17.50;37.10;;;;;;10463411;28;20319;-71
2023/10/04 00:55:19;;;;;;;1.60;1.40;;;17.50;37.10;;;;;;10462539;28;20311;-71
2023/10/04 01:00:23;;;;;;;2.13;1.80;;;17.60;37.00;;;;;;10456026;28;20237;-71
2023/10/04 01:05:28;;;;;;;2.53;1.67;;;17.60;36.90;;;;;;10461964;28;20641;-71
2023/10/04 01:10:33;;;;;;;3.47;1.60;;;17.60;37.00;;;;;;10461274;28;20236;-71
2023/10/04 01:15:39;;;;;;;1.53;1.40;;;17.70;36.60;;;;;;10462438;28;20228;-71
2023/10/04 01:20:45;;;;;;;1.67;1.53;;;17.70;36.60;;;;;;10468841;28;20232;-71
2023/10/04 01:25:49;;;;;;;1.60;1.43;;;17.70;36.80;;;;;;10467927;28;20238;-71
2023/10/04 01:30:53;;;;;;;3.07;1.60;;;17.80;36.60;;;;;;10464737;28;20319;-71
2023/10/04 01:35:56;;;;;;;1.60;1.50;;;17.70;36.20;;;;;;10468854;28;20267;-71
2023/10/04 01:41:04;;;;;;;1.50;1.40;;;17.70;36.10;;;;;;10470772;28;20232;-71
2023/10/04 01:46:07;;;;;;;2.77;1.80;;;17.70;36.50;;;;;;10466252;28;20232;-71
2023/10/04 01:51:12;;;;;;;2.40;1.83;;;17.60;35.90;;;;;;10472287;27;20918;-71
2023/10/04 01:56:17;;;;;;;1.73;1.40;;;17.50;36.10;;;;;;10466003;28;20209;-71
2023/10/04 02:01:20;;;;;;;3.93;1.67;;;17.40;36.40;;;;;;10466283;28;20231;-71
2023/10/04 02:06:23;;;;;;;2.30;1.60;;;17.40;36.40;;;;;;10467434;28;20230;-71
2023/10/04 02:11:30;;;;;;;1.83;1.50;;;17.40;36.20;;;;;;10466662;28;20312;-71
2023/10/04 02:16:34;;;;;;;1.77;1.50;;;17.40;36.50;;;;;;10464790;28;20278;-71
2023/10/04 02:21:37;;;;;;;2.90;1.60;;;17.40;36.20;;;;;;10466814;28;20716;-71
2023/10/04 02:26:42;;;;;;;2.57;1.70;;;17.30;36.10;;;;;;10466413;28;20228;-71
2023/10/04 02:31:46;;;;;;;1.80;1.70;;;17.30;36.30;;;;;;10464599;28;20251;-71
2023/10/04 02:36:51;;;;;;;1.97;1.80;;;17.20;36.00;;;;;;10464300;28;20248;-71
2023/10/04 02:41:55;;;;;;;1.63;1.53;;;17.20;36.10;;;;;;10467154;28;20702;-71
2023/10/04 02:47:01;;;;;;;2.27;1.53;;;17.20;36.40;;;;;;10463393;28;20315;-71
2023/10/04 02:52:05;;;;;;;2.03;1.73;;;17.10;36.10;;;;;;10466549;28;20220;-71
2023/10/04 02:57:10;;;;;;;1.87;1.67;;;17.10;36.20;;;;;;10464364;28;20235;-71
2023/10/04 03:02:14;;;;;;;2.07;1.50;;;17.00;36.20;;;;;;10462702;28;20232;-71
2023/10/04 03:07:17;;;;;;;1.90;1.53;;;17.00;36.10;;;;;;10465430;28;20369;-71
2023/10/04 03:12:24;;;;;;;2.50;1.60;;;16.90;36.00;;;;;;10468828;28;20238;-71
2023/10/04 03:17:28;;;;;;;1.50;1.40;;;16.90;36.20;;;;;;10464030;28;20220;-71
2023/10/04 03:22:31;;;;;;;1.70;1.60;;;16.70;36.00;;;;;;10465589;28;20324;-71
2023/10/04 03:27:35;;;;;;;2.20;1.70;;;16.70;36.20;;;;;;10465925;28;20243;-71
2023/10/04 03:32:39;;;;;;;2.43;1.60;;;16.70;36.40;;;;;;10464775;28;21791;-71
2023/10/04 03:37:54;;;;;;;2.13;1.30;;;16.60;36.00;;;;;;10467803;28;20317;-71
2023/10/04 03:42:58;;;;;;;1.70;1.60;;;16.60;36.10;;;;;;10458723;28;20304;-71
2023/10/04 03:48:05;;;;;;;1.90;1.73;;;16.50;36.10;;;;;;10465570;28;20311;-71
2023/10/04 03:53:09;;;;;;;1.50;1.40;;;16.40;35.80;;;;;;10459418;28;20259;-71
2023/10/04 03:58:15;;;;;;;1.60;1.50;;;16.20;36.00;;;;;;10463644;28;20243;-71
2023/10/04 04:03:19;;;;;;;2.63;1.70;;;16.00;36.70;;;;;;10462305;28;20283;-71
2023/10/04 04:08:22;;;;;;;2.50;2.17;;;16.00;36.70;;;;;;10463180;28;20232;-71
2023/10/04 04:13:27;;;;;;;2.73;2.10;;;16.00;36.90;;;;;;10461194;28;20274;-71
2023/10/04 04:18:30;;;;;;;2.27;1.80;;;15.90;36.90;;;;;;10458700;28;20252;-71
2023/10/04 04:23:35;;;;;;;2.10;1.90;;;15.90;36.80;;;;;;10462835;28;20220;-71
2023/10/04 04:28:39;;;;;;;3.23;2.07;;;15.90;36.70;;;;;;10460075;28;20223;-71
2023/10/04 04:33:42;;;;;;;2.73;2.00;;;15.80;36.50;;;;;;10467424;28;20596;-71
2023/10/04 04:38:47;;;;;;;1.97;1.57;;;15.60;36.20;;;;;;10461680;28;20255;-71
2023/10/04 04:43:52;;;;;;;2.20;1.40;;;15.40;36.40;;;;;;10464966;28;20228;-71
2023/10/04 04:48:55;;;;;;;1.47;1.30;;;15.30;37.00;;;;;;10462666;28;20312;-71
2023/10/04 04:53:59;;;;;;;1.47;1.30;;;15.20;36.90;;;;;;10466158;28;20315;-71
2023/10/04 04:59:07;;;;;;;1.40;1.30;;;15.20;36.70;;;;;;10471141;28;20297;-71
2023/10/04 05:04:11;;;;;;;1.50;1.40;;;15.00;37.00;;;;;;10468904;28;20224;-71
2023/10/04 05:09:17;;;;;;;1.43;1.33;;;15.00;36.80;;;;;;10469549;28;20306;-71
2023/10/04 05:14:22;;;;;;;2.30;1.20;;;14.90;37.00;;;;;;10467551;28;20315;-71
2023/10/04 05:19:25;;;;;;;1.40;1.30;;;14.80;37.30;;;;;;10467086;28;20594;-71
2023/10/04 05:24:28;;;;;;;1.80;1.60;;;14.80;36.90;;;;;;10460640;28;20229;-69
2023/10/04 05:29:33;;;;;;;1.90;1.80;;;14.70;37.00;;;;;;10467747;28;20232;-70
2023/10/04 05:34:37;;;;;;;2.00;1.70;;;14.50;37.50;;;;;;10464117;28;20232;-69
2023/10/04 05:39:40;;;;;;;1.70;1.60;;;14.30;37.30;;;;;;10468343;28;20236;-68
2023/10/04 05:44:44;;;;;;;2.20;2.00;;;14.10;37.50;;;;;;10453952;28;20224;-69
2023/10/04 05:49:48;;;;;;;1.87;1.70;;;14.10;38.40;;;;;;10447185;28;20406;-69
2023/10/04 05:54:51;;;;;;;1.73;1.63;;;14.10;38.10;;;;;;10446588;28;20224;-70
2023/10/04 05:59:56;;;;;;;4.97;1.90;;;14.20;38.20;;;;;;10451271;28;20232;-70
2023/10/04 06:04:59;;;;;;;1.80;1.70;;;14.30;38.50;;;;;;10452954;28;20227;-70
2023/10/04 06:10:03;;;;;;;2.10;1.90;;;14.20;38.10;;;;;;10448327;28;20228;-69
2023/10/04 06:15:10;;;;;;;2.10;1.90;;;14.20;38.60;;;;;;10448494;28;20231;-70
2023/10/04 06:20:24;;;;;;;1.83;1.70;;;14.30;39.30;;;;;;10447212;28;20299;-69
2023/10/04 06:25:29;;;;;;;2.50;2.30;;;14.30;38.90;;;;;;10451366;28;20305;-70
2023/10/04 06:30:35;;;;;;;3.00;1.80;;;14.40;39.30;;;;;;10444540;28;20244;-70
2023/10/04 06:35:41;;;;;;;3.73;2.20;;;14.50;39.70;;;;;;10446557;28;20314;-70
2023/10/04 06:40:44;;;;;;;2.67;2.47;;;14.50;39.50;;;;;;10450845;28;20536;-70
2023/10/04 06:45:50;;;;;;;3.20;2.40;;;14.60;39.50;;;;;;10446114;28;20240;-70
2023/10/04 06:50:54;;;;;;;2.63;2.30;;;14.60;40.20;;;;;;10448659;28;20308;-69
2023/10/04 06:55:58;;;;;;;2.70;2.50;;;14.70;39.90;;;;;;10451696;28;20232;-70
2023/10/04 07:01:02;;;;;;;2.60;2.40;;;14.70;40.20;;;;;;10442771;28;20395;-70
2023/10/04 07:06:09;;;;;;;3.90;2.60;;;14.90;41.20;;;;;;10450843;28;20274;-70
2023/10/04 07:11:12;;;;;;;3.27;2.70;;;15.00;41.10;;;;;;10462161;28;21141;-70
2023/10/04 07:16:18;;;;;;;3.93;3.00;;;15.20;40.90;;;;;;10456079;28;20308;-71
2023/10/04 07:21:21;;;;;;;2.47;2.27;;;15.30;41.60;;;;;;10458383;28;20236;-70
2023/10/04 07:26:24;;;;;;;3.13;2.60;;;15.50;41.10;;;;;;10457600;28;20708;-70
2023/10/04 07:31:31;;;;;;;2.80;2.60;;;15.60;41.20;;;;;;10455479;28;20229;-70
2023/10/04 07:36:35;;;;;;;6.63;2.70;;;15.80;41.80;;;;;;10455563;28;20239;-69
2023/10/04 07:41:40;;;;;;;3.10;2.60;;;16.00;41.40;;;;;;10457858;28;20660;-69
2023/10/04 07:46:45;;;;;;;2.90;2.40;;;16.20;41.50;;;;;;10464160;28;20277;-69
2023/10/04 07:51:48;;;;;;;3.00;2.47;;;16.30;41.50;;;;;;10455533;28;20263;-69
2023/10/04 07:56:52;;;;;;;2.37;2.17;;;16.50;41.50;;;;;;10456902;28;20230;-69
2023/10/04 08:01:56;;;;;;;2.73;2.43;;;16.70;41.50;;;;;;10458527;28;20225;-69
2023/10/04 08:06:59;;;;;;;2.47;2.23;;;16.90;41.70;;;;;;10458604;28;20270;-70
2023/10/04 08:12:03;;;;;;;2.67;2.27;;;17.10;41.50;;;;;;10455149;28;20227;-69
2023/10/04 08:17:08;;;;;;;2.83;2.30;;;17.30;41.30;;;;;;10457298;28;20720;-69
2023/10/04 08:22:12;;;;;;;2.20;2.00;;;17.50;41.60;;;;;;10456078;28;20232;-69
2023/10/04 08:27:16;;;;;;;2.80;2.37;;;17.70;40.90;;;;;;10459960;28;20244;-69
2023/10/04 08:32:20;;;;;;;2.23;2.03;;;17.90;40.80;;;;;;10457245;28;20646;-69
2023/10/04 08:37:24;;;;;;;2.83;2.07;;;18.10;40.50;;;;;;10453593;28;20229;-69
2023/10/04 08:42:28;;;;;;;3.80;2.47;;;18.30;40.30;;;;;;10454197;28;20702;-69
2023/10/04 08:47:33;;;;;;;2.70;2.40;;;18.50;40.00;;;;;;10453319;28;20213;-69
2023/10/04 08:52:37;;;;;;;3.30;2.53;;;18.60;40.20;;;;;;10468015;23;20598;-70
2023/10/04 08:57:43;;;;;;;3.87;2.50;;;18.80;39.70;;;;;;10410192;28;20225;-70
2023/10/04 09:02:48;;;;;;;3.20;2.30;;;19.10;39.30;;;;;;10411511;28;20280;-70
2023/10/04 09:07:52;;;;;;;3.47;2.30;;;19.20;39.40;;;;;;10412149;28;20237;-72
2023/10/04 09:12:55;;;;;;;2.67;2.20;;;19.40;39.30;;;;;;10409833;28;20624;-72
2023/10/04 09:18:05;;;;;;;2.37;2.00;;;19.60;39.30;;;;;;10417320;28;20228;-73
2023/10/04 09:23:20;;;;;;;2.70;2.37;;;19.80;38.40;;;;;;10409941;28;20233;-73
2023/10/04 09:28:38;;;;;;;2.47;2.23;;;20.00;38.00;;;;;;10410890;28;20316;-72
2023/10/04 09:33:44;;;;;;;2.73;2.13;;;20.10;37.70;;;;;;10410479;28;20232;-72
2023/10/04 09:39:05;;;;;;;2.20;1.90;;;20.20;37.80;;;;;;10413020;28;20662;-72
2023/10/04 09:44:20;;;;;;;3.27;2.07;;;20.30;37.60;;;;;;10427048;28;20237;-72
2023/10/04 09:49:28;;;;;;;2.50;2.07;;;20.50;36.90;;;;;;10412349;28;20691;-72
2023/10/04 09:54:31;;;;;;;2.67;2.10;;;20.70;37.10;;;;;;10417091;28;20299;-70
2023/10/04 09:59:37;;;;;;;2.30;2.10;;;20.80;37.30;;;;;;10418793;28;20229;-70
2023/10/04 10:04:44;;;;;;;2.53;2.33;;;21.00;36.30;;;;;;10424207;28;20295;-72
2023/10/04 10:09:57;;;;;;;4.20;2.27;;;21.00;35.10;;;;;;10427169;28;20324;-74
2023/10/04 10:15:07;;;;;;;2.40;2.20;;;21.00;34.40;;;;;;10432180;28;20290;-72
2023/10/04 10:20:15;;;;;;;2.60;2.40;;;20.80;35.30;;;;;;10429084;28;20232;-71
2023/10/04 10:25:19;;;;;;;2.30;2.10;;;20.80;35.40;;;;;;10432228;28;20233;-74
2023/10/04 10:30:23;;;;;;;3.03;2.03;;;20.80;35.60;;;;;;10432365;28;20243;-72
2023/10/04 10:35:59;;;;;;;3.90;1.77;;;20.90;35.60;;;;;;10432555;28;20256;-71
2023/10/04 10:41:03;;;;;;;2.60;2.37;;;21.10;33.80;;;;;;10419593;28;20222;-71
2023/10/04 10:46:28;;;;;;;3.37;2.40;;;21.20;35.60;;;;;;10430998;28;20233;-74
2023/10/04 10:51:43;;;;;;;2.80;2.30;;;21.30;34.30;;;;;;10428313;28;20225;-74
2023/10/04 10:56:46;;;;;;;3.33;2.37;;;21.30;32.70;;;;;;10424300;28;20483;-73
2023/10/04 11:01:49;;;;;;;2.67;2.30;;;21.20;34.00;;;;;;10433138;28;20228;-74
2023/10/04 11:06:55;;;;;;;3.03;1.97;;;21.20;34.00;;;;;;10424469;28;20234;-74
2023/10/04 11:11:58;;;;;;;2.40;2.10;;;21.10;34.30;;;;;;10430069;28;20762;-71
2023/10/04 11:17:01;;;;;;;2.63;2.00;;;21.10;33.70;;;;;;10421285;28;20698;-72
2023/10/04 11:22:07;;;;;;;3.03;2.30;;;21.10;33.70;;;;;;10420807;28;20291;-73
2023/10/04 11:27:12;;;;;;;2.27;2.07;;;21.20;32.50;;;;;;10422779;28;20750;-72
2023/10/04 11:32:15;;;;;;;2.20;2.00;;;21.10;32.70;;;;;;10419000;28;20675;-72
2023/10/04 11:37:20;;;;;;;3.47;2.10;;;21.10;32.30;;;;;;10422799;28;20286;-72
2023/10/04 11:42:24;;;;;;;2.10;1.90;;;21.00;31.90;;;;;;10416838;28;20235;-72
2023/10/04 11:47:31;;;;;;;2.07;1.87;;;21.00;32.50;;;;;;10416016;28;20226;-72
2023/10/04 11:52:36;;;;;;;3.03;2.00;;;21.00;32.80;;;;;;10419278;28;20225;-71
2023/10/04 11:57:39;;;;;;;3.70;2.00;;;21.20;33.40;;;;;;10415214;28;20312;-71
2023/10/04 12:02:43;;;;;;;2.53;1.73;;;21.30;32.10;;;;;;10415972;28;20226;-73
2023/10/04 12:07:48;;;;;;;2.40;1.70;;;21.40;31.00;;;;;;10421029;28;20267;-73
2023/10/04 12:12:55;;;;;;;1.90;1.50;;;21.40;30.40;;;;;;10425453;28;20274;-73
2023/10/04 12:17:58;;;;;;;2.03;1.50;;;21.40;31.00;;;;;;10423894;28;20269;-73
2023/10/04 12:23:03;;;;;;;2.70;1.47;;;21.50;30.30;;;;;;10432046;28;20221;-73
2023/10/04 12:28:08;;;;;;;2.40;1.70;;;21.40;29.70;;;;;;10424483;28;21044;-73
2023/10/04 12:33:12;;;;;;;2.60;1.73;;;21.40;30.10;;;;;;10422500;28;20229;-73
2023/10/04 12:38:17;;;;;;;1.90;1.43;;;21.50;30.30;;;;;;10427249;28;20608;-73
2023/10/04 12:43:20;;;;;;;2.33;1.60;;;21.50;29.70;;;;;;10422213;28;20274;-73
2023/10/04 12:48:25;;;;;;;2.00;1.40;;;21.50;30.20;;;;;;10427930;28;20229;-74
2023/10/04 12:53:30;;;;;;;2.07;1.77;;;21.60;30.10;;;;;;10433098;28;20229;-72
2023/10/04 12:58:34;;;;;;;1.90;1.70;;;21.60;30.00;;;;;;10437502;28;20309;-72
2023/10/04 13:03:37;;;;;;;2.37;1.60;;;21.70;30.00;;;;;;10421341;28;20786;-72
2023/10/04 13:08:42;;;;;;;3.37;1.70;;;21.70;30.30;;;;;;10463649;28;20223;-70
2023/10/04 13:13:47;;;;;;;1.90;1.70;;;21.80;29.60;;;;;;10474083;28;20252;-72
2023/10/04 13:18:51;;;;;;;1.50;1.40;;;21.90;29.30;;;;;;10452038;28;20315;-72
2023/10/04 13:23:56;;;;;;;1.73;1.40;;;21.80;28.60;;;;;;10448001;28;20229;-72
2023/10/04 13:28:59;;;;;;;2.33;1.60;;;21.80;28.10;;;;;;10442445;28;20235;-72
2023/10/04 13:34:05;;;;;;;2.20;1.60;;;21.70;28.60;;;;;;10406076;28;20237;-72
2023/10/04 13:39:10;;;;;;;2.63;1.50;;;21.80;28.80;;;;;;10444849;28;20436;-72
2023/10/04 13:44:15;;;;;;;1.83;1.40;;;21.80;28.10;;;;;;10446962;28;20244;-72
2023/10/04 13:49:19;;;;;;;1.60;1.50;;;21.80;28.40;;;;;;10454714;28;20706;-72
2023/10/04 13:54:25;;;;;;;2.17;1.50;;;21.80;28.60;;;;;;10436894;28;20233;-71
2023/10/04 13:59:29;;;;;;;1.80;1.60;;;21.80;27.80;;;;;;10439732;28;20319;-74
2023/10/04 14:04:32;;;;;;;2.17;1.80;;;21.90;28.50;;;;;;10426493;28;20255;-73
2023/10/04 14:09:37;;;;;;;1.57;1.40;;;21.90;28.50;;;;;;10426939;28;20253;-73
2023/10/04 14:14:41;;;;;;;2.23;1.40;;;22.00;28.00;;;;;;10435262;28;20229;-73
2023/10/04 14:19:44;;;;;;;1.67;1.57;;;22.00;28.30;;;;;;10441588;28;20233;-72
2023/10/04 14:24:50;;;;;;;1.60;1.50;;;22.10;28.30;;;;;;10427781;28;20237;-72
2023/10/04 14:29:54;;;;;;;1.30;1.20;;;22.10;27.40;;;;;;10425063;28;20228;-73
2023/10/04 14:34:57;;;;;;;1.50;1.40;;;22.10;27.80;;;;;;10436444;28;20241;-72
2023/10/04 14:40:03;;;;;;;1.73;1.30;;;22.10;27.40;;;;;;10427287;28;20627;-72
2023/10/04 14:45:08;;;;;;;1.80;1.40;;;22.00;26.70;;;;;;10417681;28;20304;-71
2023/10/04 14:50:13;;;;;;;2.17;1.40;;;22.00;26.70;;;;;;10419305;28;20999;-71
2023/10/04 14:55:19;;;;;;;2.90;1.60;;;22.00;27.20;;;;;;10422789;28;20252;-72
2023/10/04 15:00:24;;;;;;;1.60;1.50;;;22.00;27.10;;;;;;10432446;28;20606;-72
2023/10/04 15:05:28;;;;;;;3.37;1.40;;;22.00;27.50;;;;;;10439536;28;20603;-71
2023/10/04 15:10:33;;;;;;;2.20;1.33;;;21.90;27.20;;;;;;10440651;28;20725;-73
2023/10/04 15:15:37;;;;;;;1.80;1.30;;;21.90;27.10;;;;;;10427548;28;20725;-73
2023/10/04 15:20:56;;;;;;;1.50;1.20;;;21.90;27.10;;;;;;10444397;28;20233;-73
2023/10/04 15:26:01;;;;;;;1.30;1.20;;;21.80;27.00;;;;;;10424068;28;20324;-73
2023/10/04 15:31:06;;;;;;;1.43;1.30;;;21.80;26.50;;;;;;10434789;28;20760;-74
2023/10/04 15:36:10;;;;;;;2.40;1.13;;;21.70;27.20;;;;;;10416633;28;20239;-73
2023/10/04 15:41:15;;;;;;;1.40;1.30;;;21.70;27.60;;;;;;10416227;28;20672;-72
2023/10/04 15:46:18;;;;;;;2.23;1.27;;;21.70;27.00;;;;;;10412374;28;20249;-73
2023/10/04 15:51:22;;;;;;;1.70;1.10;;;21.60;27.20;;;;;;10420316;28;20260;-74
2023/10/04 15:56:27;;;;;;;4.03;1.30;;;21.60;28.10;;;;;;10415394;28;20233;-75
2023/10/04 16:01:30;;;;;;;1.40;1.30;;;21.60;28.20;;;;;;10415061;28;20231;-75
2023/10/04 16:06:37;;;;;;;1.90;1.40;;;21.70;27.90;;;;;;10411572;28;20241;-74
2023/10/04 16:11:42;;;;;;;2.13;1.40;;;21.70;28.10;;;;;;10413197;28;20260;-75
2023/10/04 16:16:45;;;;;;;2.77;1.47;;;21.70;27.50;;;;;;10426842;28;20240;-75
2023/10/04 16:21:48;;;;;;;2.07;1.47;;;21.60;27.80;;;;;;10419386;28;20717;-75
2023/10/04 16:26:54;;;;;;;1.97;1.50;;;21.50;27.90;;;;;;10415862;28;20232;-73
2023/10/04 16:31:58;;;;;;;1.30;1.17;;;21.40;27.80;;;;;;10412405;28;20232;-73
2023/10/04 16:37:01;;;;;;;1.40;1.23;;;21.30;27.90;;;;;;10412446;28;20333;-73
2023/10/04 16:42:06;;;;;;;1.43;1.20;;;21.10;27.90;;;;;;10409022;28;20251;-73
2023/10/04 16:47:09;;;;;;;1.77;1.30;;;20.90;27.70;;;;;;10411997;28;20681;-73
2023/10/04 16:52:12;;;;;;;2.07;1.33;;;20.80;27.60;;;;;;10412226;28;20235;-73
2023/10/04 16:57:18;;;;;;;1.93;1.30;;;20.60;27.90;;;;;;10407979;28;20294;-73
2023/10/04 17:02:22;;;;;;;2.07;1.40;;;20.50;28.20;;;;;;10410146;28;20228;-73
2023/10/04 17:07:25;;;;;;;2.07;1.33;;;20.30;28.40;;;;;;10401579;28;20706;-73
2023/10/04 17:12:30;;;;;;;1.40;1.30;;;20.10;28.50;;;;;;10406150;28;20313;-73
2023/10/04 17:17:33;;;;;;;2.00;1.70;;;19.90;28.70;;;;;;10412671;28;20711;-74
2023/10/04 17:22:38;;;;;;;2.13;1.27;;;19.80;28.80;;;;;;10411456;28;20252;-73
2023/10/04 17:27:43;;;;;;;1.70;1.33;;;19.70;29.00;;;;;;10411120;28;20315;-73
2023/10/04 17:32:46;;;;;;;1.93;1.53;;;19.60;29.10;;;;;;10410917;28;20607;-74
2023/10/04 17:37:50;;;;;;;1.80;1.30;;;19.60;29.10;;;;;;10411143;28;20229;-74
2023/10/04 17:42:54;;;;;;;1.40;1.23;;;19.50;29.20;;;;;;10410099;28;20248;-73
2023/10/04 17:47:58;;;;;;;1.83;1.50;;;19.40;29.40;;;;;;10411506;28;20228;-73
2023/10/04 17:53:02;;;;;;;2.10;1.80;;;19.20;29.50;;;;;;10407925;28;20280;-73
2023/10/04 17:58:07;;;;;;;4.20;3.23;;;19.10;29.70;;;;;;10410302;28;20228;-73
2023/10/04 18:03:11;;;;;;;3.43;3.13;;;19.10;30.00;;;;;;10420236;28;20229;-73
2023/10/04 18:08:14;;;;;;;2.83;2.50;;;19.00;29.90;;;;;;10418163;28;20581;-73
2023/10/04 18:13:20;;;;;;;2.87;1.90;;;19.00;30.00;;;;;;10425258;28;20232;-73
2023/10/04 18:18:23;;;;;;;1.97;1.60;;;18.90;30.20;;;;;;10419626;28;20231;-73
2023/10/04 18:23:26;;;;;;;2.40;1.70;;;18.90;30.00;;;;;;10417484;28;20527;-73
2023/10/04 18:28:31;;;;;;;3.73;1.60;;;18.80;30.00;;;;;;10420315;28;20225;-73
2023/10/04 18:33:35;;;;;;;2.60;1.63;;;18.60;30.20;;;;;;10418645;28;20303;-74
2023/10/04 18:38:38;;;;;;;2.07;1.67;;;18.50;30.30;;;;;;10417514;28;20251;-73
2023/10/04 18:43:44;;;;;;;2.00;1.57;;;18.40;30.50;;;;;;10413983;28;21380;-73
2023/10/04 18:48:47;;;;;;;1.60;1.40;;;18.30;30.60;;;;;;10414118;28;20228;-74
2023/10/04 18:53:50;;;;;;;2.87;1.67;;;18.20;30.60;;;;;;10414416;28;20301;-74
2023/10/04 18:58:55;;;;;;;2.67;1.60;;;18.10;30.60;;;;;;10419839;28;20232;-74
2023/10/04 19:03:58;;;;;;;1.60;1.50;;;18.10;30.90;;;;;;10414054;28;20236;-73
2023/10/04 19:09:04;;;;;;;1.97;1.80;;;18.10;30.70;;;;;;10427703;28;20235;-71
2023/10/04 19:14:09;;;;;;;2.30;1.90;;;18.10;30.60;;;;;;10423197;28;20743;-72
2023/10/04 19:19:12;;;;;;;2.47;1.83;;;18.10;30.70;;;;;;10419335;28;20769;-73
2023/10/04 19:24:16;;;;;;;1.70;1.60;;;17.90;30.50;;;;;;10414951;28;20323;-71
2023/10/04 19:29:22;;;;;;;4.33;1.90;;;17.90;30.60;;;;;;10415896;28;20221;-73
2023/10/04 19:34:25;;;;;;;2.50;1.70;;;17.70;31.00;;;;;;10418514;28;20241;-72
2023/10/04 19:39:30;;;;;;;3.77;2.30;;;17.60;30.80;;;;;;10418440;28;20227;-74
2023/10/04 19:44:37;;;;;;;2.50;2.30;;;17.50;31.00;;;;;;10417942;28;20283;-72
2023/10/04 19:49:42;;;;;;;3.30;2.33;;;17.30;31.20;;;;;;10431709;28;20225;-72
2023/10/04 19:54:49;;;;;;;2.40;2.00;;;17.10;31.20;;;;;;10418049;28;20229;-72
2023/10/04 19:59:54;;;;;;;2.60;2.40;;;17.00;31.50;;;;;;10440233;28;20229;-73
2023/10/04 20:04:58;;;;;;;3.40;2.37;;;16.90;31.90;;;;;;10439531;28;20229;-73
2023/10/04 20:10:01;;;;;;;3.80;2.33;;;16.90;32.00;;;;;;10437202;28;20327;-73
2023/10/04 20:15:08;;;;;;;4.00;2.40;;;16.90;31.70;;;;;;10436048;28;20236;-73
2023/10/04 20:20:16;;;;;;;3.23;2.40;;;16.90;32.00;;;;;;10440814;28;20250;-74
2023/10/04 20:25:28;;;;;;;3.03;2.67;;;16.70;31.30;;;;;;10445464;28;20236;-75
2023/10/04 20:30:34;;;;;;;3.53;2.73;;;16.60;32.30;;;;;;10445744;28;20225;-75
2023/10/04 20:35:38;;;;;;;4.27;2.83;;;16.30;32.20;;;;;;10446131;28;20247;-74
2023/10/04 20:40:42;;;;;;;9.60;6.30;;;16.20;32.00;;;;;;10445498;28;20227;-74
2023/10/04 20:45:47;;;;;;;12.10;9.70;;;16.10;32.30;;;;;;10438980;28;20865;-75
2023/10/04 20:50:51;;;;;;;8.83;6.90;;;15.90;32.50;;;;;;10410208;28;20236;-75
2023/10/04 20:55:55;;;;;;;7.23;4.20;;;15.80;32.40;;;;;;10409041;28;20236;-74
2023/10/04 21:01:02;;;;;;;5.53;3.87;;;15.60;32.60;;;;;;10407139;28;20889;-74
2023/10/04 21:06:07;;;;;;;4.47;3.13;;;15.50;32.80;;;;;;10409853;28;20225;-74
2023/10/04 21:11:11;;;;;;;4.20;2.50;;;15.40;32.50;;;;;;10404589;28;20657;-74
2023/10/04 21:16:16;;;;;;;3.87;2.80;;;15.50;32.50;;;;;;10408846;28;20227;-74
2023/10/04 21:21:20;;;;;;;5.83;2.90;;;15.40;32.50;;;;;;10408542;28;20228;-74
2023/10/04 21:26:23;;;;;;;3.77;2.57;;;15.40;32.50;;;;;;10405118;28;20972;-74
2023/10/04 21:31:27;;;;;;;5.93;2.70;;;15.30;32.40;;;;;;10405951;28;20236;-74
2023/10/04 21:36:31;;;;;;;4.83;2.80;;;15.10;32.20;;;;;;10412110;28;20623;-74
2023/10/04 21:41:42;;;;;;;3.50;2.10;;;15.00;32.20;;;;;;10412164;28;20228;-73
2023/10/04 21:46:46;;;;;;;4.37;2.50;;;14.80;32.70;;;;;;10414437;28;20225;-74
2023/10/04 21:51:54;;;;;;;3.17;2.20;;;14.80;33.10;;;;;;10420192;28;20233;-74
2023/10/04 21:56:57;;;;;;;3.80;2.20;;;14.70;32.80;;;;;;10418684;28;20221;-74
2023/10/04 22:02:02;;;;;;;3.23;2.37;;;14.60;32.70;;;;;;10418779;28;20814;-74
2023/10/04 22:07:08;;;;;;;2.17;1.80;;;14.50;33.30;;;;;;10419085;28;20229;-74
2023/10/04 22:12:24;;;;;;;2.57;2.07;;;14.50;33.20;;;;;;10416819;28;20237;-75
2023/10/04 22:17:33;;;;;;;2.43;2.20;;;14.50;33.20;;;;;;10417701;28;20493;-74
2023/10/04 22:22:36;;;;;;;2.33;2.13;;;14.60;33.50;;;;;;10416348;28;20236;-74
2023/10/04 22:27:40;;;;;;;2.87;2.30;;;14.60;33.10;;;;;;10416943;28;20233;-74
2023/10/04 22:32:47;;;;;;;2.60;2.30;;;14.60;33.00;;;;;;10418289;28;20308;-74
2023/10/04 22:37:51;;;;;;;2.77;2.40;;;14.60;33.30;;;;;;10415740;28;20711;-74
2023/10/04 22:42:57;;;;;;;3.00;2.50;;;14.60;33.00;;;;;;10412782;28;20226;-74
2023/10/04 22:48:03;;;;;;;2.53;2.20;;;14.60;33.00;;;;;;10414283;28;20824;-74
2023/10/04 22:53:09;;;;;;;3.37;2.13;;;14.60;33.30;;;;;;10423450;28;20245;-74
2023/10/04 22:58:13;;;;;;;4.40;2.40;;;14.60;33.10;;;;;;10414446;28;20585;-74
2023/10/04 23:03:18;;;;;;;3.83;1.97;;;14.50;32.80;;;;;;10419311;28;20229;-74
2023/10/04 23:08:26;;;;;;;4.00;2.40;;;14.50;33.00;;;;;;10418121;28;20237;-74
2023/10/04 23:13:29;;;;;;;2.87;2.10;;;14.40;32.90;;;;;;10415750;28;20729;-75
2023/10/04 23:18:35;;;;;;;2.27;2.00;;;14.30;33.00;;;;;;10416999;28;20228;-75
2023/10/04 23:23:51;;;;;;;3.90;2.07;;;14.20;33.30;;;;;;10414577;28;20233;-75
2023/10/04 23:28:54;;;;;;;3.43;2.17;;;14.20;33.10;;;;;;10412754;28;20245;-75
2023/10/04 23:33:59;;;;;;;2.77;2.27;;;14.20;33.10;;;;;;10413868;28;20234;-75
2023/10/04 23:39:07;;;;;;;2.20;1.90;;;14.10;33.30;;;;;;10414827;28;20737;-75
2023/10/04 23:44:12;;;;;;;2.57;2.00;;;14.10;33.20;;;;;;10417109;28;20620;-75
2023/10/04 23:49:19;;;;;;;3.13;2.30;;;14.10;33.30;;;;;;10418020;28;20220;-75
2023/10/04 23:54:25;;;;;;;2.90;2.20;;;14.10;33.60;;;;;;10418764;28;20255;-75
2023/10/04 23:59:29;;;;;;;2.93;2.30;;;14.10;33.30;;;;;;10415044;28;20786;-75
